sensor_id;sensor_type;location;lat;lon;timestamp;pressure;altitude;pressure_sealevel;temperature;humidity
68301;BME280;55146;47.468;18.806;2023-04-25T00:00:35;99015.75;;;12.55;80.24
68301;BME280;55146;47.468;18.806;2023-04-25T00:03:00;99019.44;;;12.50;80.29
68301;BME280;55146;47.468;18.806;2023-04-25T00:05:26;99014.09;;;12.54;80.04
68301;BME280;55146;47.468;18.806;2023-04-25T00:07:52;99011.56;;;12.57;79.12
68301;BME280;55146;47.468;18.806;2023-04-25T00:10:19;99002.37;;;12.48;79.43
68301;BME280;55146;47.468;18.806;2023-04-25T00:12:44;99004.19;;;12.53;79.60
68301;BME280;55146;47.468;18.806;2023-04-25T00:15:11;99007.97;;;12.57;79.95
68301;BME280;55146;47.468;18.806;2023-04-25T00:17:37;98998.50;;;12.49;79.68
68301;BME280;55146;47.468;18.806;2023-04-25T00:20:03;99011.47;;;12.27;81.03
68301;BME280;55146;47.468;18.806;2023-04-25T00:22:34;99012.72;;;12.21;82.67
68301;BME280;55146;47.468;18.806;2023-04-25T00:24:59;99011.25;;;12.01;83.42
68301;BME280;55146;47.468;18.806;2023-04-25T00:27:26;99002.47;;;11.99;84.36
68301;BME280;55146;47.468;18.806;2023-04-25T00:29:51;99005.63;;;12.06;83.68
68301;BME280;55146;47.468;18.806;2023-04-25T00:32:17;98996.66;;;12.23;82.97
68301;BME280;55146;47.468;18.806;2023-04-25T00:34:42;98990.47;;;12.17;82.74
68301;BME280;55146;47.468;18.806;2023-04-25T00:37:07;98990.19;;;12.05;83.61
68301;BME280;55146;47.468;18.806;2023-04-25T00:39:33;98987.97;;;12.07;83.25
68301;BME280;55146;47.468;18.806;2023-04-25T00:41:58;98989.59;;;12.08;83.63
68301;BME280;55146;47.468;18.806;2023-04-25T00:44:24;98985.44;;;11.97;83.53
68301;BME280;55146;47.468;18.806;2023-04-25T00:46:50;98988.09;;;12.02;83.25
68301;BME280;55146;47.468;18.806;2023-04-25T00:49:16;98975.53;;;11.96;83.56
68301;BME280;55146;47.468;18.806;2023-04-25T00:51:43;98980.53;;;11.94;83.77
68301;BME280;55146;47.468;18.806;2023-04-25T00:54:10;98972.56;;;11.92;83.91
68301;BME280;55146;47.468;18.806;2023-04-25T00:56:37;98974.09;;;11.98;83.54
68301;BME280;55146;47.468;18.806;2023-04-25T00:59:03;98971.16;;;11.95;83.65
68301;BME280;55146;47.468;18.806;2023-04-25T01:01:28;98962.25;;;11.98;83.30
68301;BME280;55146;47.468;18.806;2023-04-25T01:03:55;98964.09;;;12.02;82.50
68301;BME280;55146;47.468;18.806;2023-04-25T01:06:21;98965.94;;;11.93;82.39
68301;BME280;55146;47.468;18.806;2023-04-25T01:08:47;98960.25;;;11.90;82.13
68301;BME280;55146;47.468;18.806;2023-04-25T01:11:12;98957.69;;;11.93;81.01
68301;BME280;55146;47.468;18.806;2023-04-25T01:13:38;98963.00;;;11.90;81.00
68301;BME280;55146;47.468;18.806;2023-04-25T01:16:04;98972.56;;;11.92;80.68
68301;BME280;55146;47.468;18.806;2023-04-25T01:18:30;98957.97;;;11.92;80.37
68301;BME280;55146;47.468;18.806;2023-04-25T01:20:55;98959.91;;;11.91;78.94
68301;BME280;55146;47.468;18.806;2023-04-25T01:23:23;98962.50;;;11.88;77.81
68301;BME280;55146;47.468;18.806;2023-04-25T01:25:49;98960.75;;;11.92;77.06
68301;BME280;55146;47.468;18.806;2023-04-25T01:28:15;98956.56;;;11.94;76.58
68301;BME280;55146;47.468;18.806;2023-04-25T01:30:41;98954.63;;;11.95;76.08
68301;BME280;55146;47.468;18.806;2023-04-25T01:33:08;98955.34;;;11.87;76.32
68301;BME280;55146;47.468;18.806;2023-04-25T01:35:33;98959.03;;;11.82;76.06
68301;BME280;55146;47.468;18.806;2023-04-25T01:37:59;98958.88;;;11.79;76.34
68301;BME280;55146;47.468;18.806;2023-04-25T01:40:24;98954.13;;;11.79;75.93
68301;BME280;55146;47.468;18.806;2023-04-25T01:42:51;98955.28;;;11.78;75.40
68301;BME280;55146;47.468;18.806;2023-04-25T01:45:17;98944.06;;;11.61;76.21
68301;BME280;55146;47.468;18.806;2023-04-25T01:47:42;98958.16;;;11.59;76.81
68301;BME280;55146;47.468;18.806;2023-04-25T01:50:09;98946.72;;;11.66;76.26
68301;BME280;55146;47.468;18.806;2023-04-25T01:52:35;98958.88;;;11.51;76.51
68301;BME280;55146;47.468;18.806;2023-04-25T01:55:02;98957.13;;;11.55;76.31
68301;BME280;55146;47.468;18.806;2023-04-25T01:57:27;98952.56;;;11.51;76.17
68301;BME280;55146;47.468;18.806;2023-04-25T02:00:00;98964.81;;;11.31;76.97
68301;BME280;55146;47.468;18.806;2023-04-25T02:02:26;98960.94;;;11.46;76.68
68301;BME280;55146;47.468;18.806;2023-04-25T02:04:52;98965.72;;;11.40;76.41
68301;BME280;55146;47.468;18.806;2023-04-25T02:07:17;98970.00;;;11.46;75.43
68301;BME280;55146;47.468;18.806;2023-04-25T02:09:43;98964.91;;;11.40;76.36
68301;BME280;55146;47.468;18.806;2023-04-25T02:12:09;98960.00;;;11.36;76.78
68301;BME280;55146;47.468;18.806;2023-04-25T02:14:35;98969.00;;;11.28;76.38
68301;BME280;55146;47.468;18.806;2023-04-25T02:17:01;98958.47;;;11.30;76.56
68301;BME280;55146;47.468;18.806;2023-04-25T02:19:26;98968.06;;;11.33;76.90
68301;BME280;55146;47.468;18.806;2023-04-25T02:21:51;98974.59;;;11.37;76.25
68301;BME280;55146;47.468;18.806;2023-04-25T02:24:17;98967.03;;;11.43;75.66
68301;BME280;55146;47.468;18.806;2023-04-25T02:26:42;98964.50;;;11.32;75.52
68301;BME280;55146;47.468;18.806;2023-04-25T02:29:09;98970.13;;;11.41;76.08
68301;BME280;55146;47.468;18.806;2023-04-25T02:31:34;98959.59;;;11.43;75.95
68301;BME280;55146;47.468;18.806;2023-04-25T02:33:59;98961.03;;;11.41;76.12
68301;BME280;55146;47.468;18.806;2023-04-25T02:36:25;98964.41;;;11.38;74.91
68301;BME280;55146;47.468;18.806;2023-04-25T02:38:51;98964.91;;;11.40;75.45
68301;BME280;55146;47.468;18.806;2023-04-25T02:41:17;98956.66;;;11.40;75.53
68301;BME280;55146;47.468;18.806;2023-04-25T02:43:42;98962.16;;;11.26;74.94
68301;BME280;55146;47.468;18.806;2023-04-25T02:46:08;98965.63;;;11.31;75.65
68301;BME280;55146;47.468;18.806;2023-04-25T02:48:33;98960.94;;;11.32;75.35
68301;BME280;55146;47.468;18.806;2023-04-25T02:50:58;98959.59;;;11.29;74.93
68301;BME280;55146;47.468;18.806;2023-04-25T02:53:24;98958.81;;;11.29;75.25
68301;BME280;55146;47.468;18.806;2023-04-25T02:55:49;98969.00;;;11.28;74.99
68301;BME280;55146;47.468;18.806;2023-04-25T02:58:14;98964.31;;;11.29;75.16
68301;BME280;55146;47.468;18.806;2023-04-25T03:00:40;98958.69;;;11.20;75.68
68301;BME280;55146;47.468;18.806;2023-04-25T03:03:06;98964.00;;;11.17;74.94
68301;BME280;55146;47.468;18.806;2023-04-25T03:05:31;98954.94;;;11.16;75.99
68301;BME280;55146;47.468;18.806;2023-04-25T03:07:56;98955.00;;;11.11;75.95
68301;BME280;55146;47.468;18.806;2023-04-25T03:10:22;98959.22;;;11.22;76.31
68301;BME280;55146;47.468;18.806;2023-04-25T03:12:47;98954.63;;;11.18;76.37
68301;BME280;55146;47.468;18.806;2023-04-25T03:15:12;98953.41;;;11.10;76.57
68301;BME280;55146;47.468;18.806;2023-04-25T03:17:38;98950.66;;;11.10;76.73
68301;BME280;55146;47.468;18.806;2023-04-25T03:20:03;98950.66;;;11.10;76.61
68301;BME280;55146;47.468;18.806;2023-04-25T03:22:29;98961.34;;;11.12;76.39
68301;BME280;55146;47.468;18.806;2023-04-25T03:24:54;98959.94;;;11.14;76.63
68301;BME280;55146;47.468;18.806;2023-04-25T03:27:20;98950.25;;;11.03;76.96
68301;BME280;55146;47.468;18.806;2023-04-25T03:29:45;98950.53;;;11.02;76.93
68301;BME280;55146;47.468;18.806;2023-04-25T03:32:11;98962.06;;;11.04;76.80
68301;BME280;55146;47.468;18.806;2023-04-25T03:34:36;98956.97;;;10.97;77.17
68301;BME280;55146;47.468;18.806;2023-04-25T03:37:02;98964.19;;;10.93;77.51
68301;BME280;55146;47.468;18.806;2023-04-25T03:39:27;98960.72;;;11.01;77.39
68301;BME280;55146;47.468;18.806;2023-04-25T03:41:52;98965.22;;;10.97;77.55
68301;BME280;55146;47.468;18.806;2023-04-25T03:44:18;98973.97;;;10.99;76.75
68301;BME280;55146;47.468;18.806;2023-04-25T03:46:43;98972.16;;;10.94;77.17
68301;BME280;55146;47.468;18.806;2023-04-25T03:49:08;98976.44;;;11.01;77.17
68301;BME280;55146;47.468;18.806;2023-04-25T03:51:34;98979.78;;;10.84;77.56
68301;BME280;55146;47.468;18.806;2023-04-25T03:53:59;98973.66;;;10.87;78.27
68301;BME280;55146;47.468;18.806;2023-04-25T03:56:25;98977.22;;;10.74;78.44
68301;BME280;55146;47.468;18.806;2023-04-25T03:58:50;98982.44;;;10.89;78.83
68301;BME280;55146;47.468;18.806;2023-04-25T04:01:15;98981.09;;;10.86;79.18
68301;BME280;55146;47.468;18.806;2023-04-25T04:03:41;98989.44;;;10.81;79.63
68301;BME280;55146;47.468;18.806;2023-04-25T04:06:06;98990.69;;;10.89;79.46
68301;BME280;55146;47.468;18.806;2023-04-25T04:08:33;98995.66;;;10.87;79.63
68301;BME280;55146;47.468;18.806;2023-04-25T04:10:58;98990.56;;;10.80;79.99
68301;BME280;55146;47.468;18.806;2023-04-25T04:13:26;98996.47;;;10.87;79.80
68301;BME280;55146;47.468;18.806;2023-04-25T04:15:52;98993.41;;;10.75;80.73
68301;BME280;55146;47.468;18.806;2023-04-25T04:18:17;98994.22;;;10.76;81.41
68301;BME280;55146;47.468;18.806;2023-04-25T04:20:43;99002.78;;;10.74;81.87
68301;BME280;55146;47.468;18.806;2023-04-25T04:23:08;98999.97;;;10.79;82.18
68301;BME280;55146;47.468;18.806;2023-04-25T04:25:33;99006.56;;;10.78;81.95
68301;BME280;55146;47.468;18.806;2023-04-25T04:27:59;99015.22;;;10.72;82.18
68301;BME280;55146;47.468;18.806;2023-04-25T04:30:26;99008.56;;;10.59;83.51
68301;BME280;55146;47.468;18.806;2023-04-25T04:32:55;99012.50;;;10.53;84.09
68301;BME280;55146;47.468;18.806;2023-04-25T04:35:21;99007.75;;;10.59;85.06
68301;BME280;55146;47.468;18.806;2023-04-25T04:37:47;99007.88;;;10.67;84.42
68301;BME280;55146;47.468;18.806;2023-04-25T04:40:13;99014.44;;;10.52;85.39
68301;BME280;55146;47.468;18.806;2023-04-25T04:42:43;99012.16;;;10.41;85.96
68301;BME280;55146;47.468;18.806;2023-04-25T04:45:10;99005.78;;;10.27;87.79
68301;BME280;55146;47.468;18.806;2023-04-25T04:47:36;99012.47;;;10.21;87.92
68301;BME280;55146;47.468;18.806;2023-04-25T04:50:03;99014.56;;;10.29;88.83
68301;BME280;55146;47.468;18.806;2023-04-25T04:52:29;99017.87;;;10.26;88.69
68301;BME280;55146;47.468;18.806;2023-04-25T04:54:54;99012.78;;;10.19;89.44
68301;BME280;55146;47.468;18.806;2023-04-25T04:57:20;99014.53;;;10.10;90.29
68301;BME280;55146;47.468;18.806;2023-04-25T04:59:45;99011.94;;;10.19;89.44
68301;BME280;55146;47.468;18.806;2023-04-25T05:02:11;99016.38;;;10.14;90.65
68301;BME280;55146;47.468;18.806;2023-04-25T05:04:36;99017.37;;;10.05;91.43
68301;BME280;55146;47.468;18.806;2023-04-25T05:07:01;99017.00;;;10.11;92.22
68301;BME280;55146;47.468;18.806;2023-04-25T05:09:27;99009.34;;;10.08;91.44
68301;BME280;55146;47.468;18.806;2023-04-25T05:11:52;99011.88;;;10.05;92.74
68301;BME280;55146;47.468;18.806;2023-04-25T05:14:18;99006.97;;;10.02;92.02
68301;BME280;55146;47.468;18.806;2023-04-25T05:16:43;99012.91;;;10.09;91.63
68301;BME280;55146;47.468;18.806;2023-04-25T05:19:09;99008.59;;;10.03;92.51
68301;BME280;55146;47.468;18.806;2023-04-25T05:21:34;98999.31;;;9.99;92.64
68301;BME280;55146;47.468;18.806;2023-04-25T05:24:00;99001.19;;;10.03;92.74
68301;BME280;55146;47.468;18.806;2023-04-25T05:26:26;99007.34;;;9.95;93.36
68301;BME280;55146;47.468;18.806;2023-04-25T05:28:56;99013.72;;;10.09;92.01
68301;BME280;55146;47.468;18.806;2023-04-25T05:31:21;99010.53;;;10.02;93.76
68301;BME280;55146;47.468;18.806;2023-04-25T05:33:47;99016.47;;;10.09;93.38
68301;BME280;55146;47.468;18.806;2023-04-25T05:36:12;99010.87;;;10.14;93.01
68301;BME280;55146;47.468;18.806;2023-04-25T05:38:37;99009.78;;;10.15;93.28
68301;BME280;55146;47.468;18.806;2023-04-25T05:41:02;99004.94;;;10.07;93.26
68301;BME280;55146;47.468;18.806;2023-04-25T05:43:28;99001.09;;;10.08;93.75
68301;BME280;55146;47.468;18.806;2023-04-25T05:45:53;99003.22;;;10.17;93.95
68301;BME280;55146;47.468;18.806;2023-04-25T05:48:19;99003.28;;;10.30;93.01
68301;BME280;55146;47.468;18.806;2023-04-25T05:50:44;98998.12;;;10.42;92.00
68301;BME280;55146;47.468;18.806;2023-04-25T05:53:09;99002.66;;;10.33;93.07
68301;BME280;55146;47.468;18.806;2023-04-25T05:55:35;99010.00;;;10.38;93.26
68301;BME280;55146;47.468;18.806;2023-04-25T05:58:00;99011.19;;;10.32;92.83
68301;BME280;55146;47.468;18.806;2023-04-25T06:00:26;99002.28;;;10.40;93.08
68301;BME280;55146;47.468;18.806;2023-04-25T06:02:51;99002.56;;;10.38;90.79
68301;BME280;55146;47.468;18.806;2023-04-25T06:05:16;99003.53;;;10.47;92.05
68301;BME280;55146;47.468;18.806;2023-04-25T06:07:42;99004.06;;;10.63;90.09
68301;BME280;55146;47.468;18.806;2023-04-25T06:10:08;98995.75;;;10.82;90.27
68301;BME280;55146;47.468;18.806;2023-04-25T06:12:34;99002.78;;;10.74;87.66
68301;BME280;55146;47.468;18.806;2023-04-25T06:15:00;98995.59;;;10.92;89.63
68301;BME280;55146;47.468;18.806;2023-04-25T06:17:26;98988.25;;;11.01;87.17
68301;BME280;55146;47.468;18.806;2023-04-25T06:19:51;98995.59;;;11.06;86.54
68301;BME280;55146;47.468;18.806;2023-04-25T06:22:16;98992.53;;;11.07;87.52
68301;BME280;55146;47.468;18.806;2023-04-25T06:24:42;98996.41;;;11.06;87.26
68301;BME280;55146;47.468;18.806;2023-04-25T06:27:07;98994.59;;;11.15;87.13
68301;BME280;55146;47.468;18.806;2023-04-25T06:29:33;98997.75;;;11.22;87.02
68301;BME280;55146;47.468;18.806;2023-04-25T06:31:58;98992.63;;;11.29;85.28
68301;BME280;55146;47.468;18.806;2023-04-25T06:34:23;98992.34;;;11.45;84.06
68301;BME280;55146;47.468;18.806;2023-04-25T06:36:49;98991.09;;;11.51;84.86
68301;BME280;55146;47.468;18.806;2023-04-25T06:39:14;98993.97;;;11.59;83.57
68301;BME280;55146;47.468;18.806;2023-04-25T06:41:40;98990.38;;;11.72;85.32
68301;BME280;55146;47.468;18.806;2023-04-25T06:44:05;98990.62;;;11.98;83.86
68301;BME280;55146;47.468;18.806;2023-04-25T06:46:31;98991.50;;;12.21;82.02
68301;BME280;55146;47.468;18.806;2023-04-25T06:48:56;98989.03;;;12.42;80.54
68301;BME280;55146;47.468;18.806;2023-04-25T06:51:21;98991.44;;;12.57;78.99
68301;BME280;55146;47.468;18.806;2023-04-25T06:53:47;98998.00;;;12.70;78.83
68301;BME280;55146;47.468;18.806;2023-04-25T06:56:12;98983.69;;;12.68;79.18
68301;BME280;55146;47.468;18.806;2023-04-25T06:58:37;98993.44;;;12.96;76.48
68301;BME280;55146;47.468;18.806;2023-04-25T07:01:03;98988.09;;;13.00;75.68
68301;BME280;55146;47.468;18.806;2023-04-25T07:03:28;98990.78;;;13.13;76.23
68301;BME280;55146;47.468;18.806;2023-04-25T07:05:53;98989.72;;;13.31;77.78
68301;BME280;55146;47.468;18.806;2023-04-25T07:08:19;98993.78;;;13.25;76.89
68301;BME280;55146;47.468;18.806;2023-04-25T07:10:46;98988.41;;;13.29;74.86
68301;BME280;55146;47.468;18.806;2023-04-25T07:13:11;98992.94;;;13.25;76.10
68301;BME280;55146;47.468;18.806;2023-04-25T07:15:37;98997.19;;;13.31;76.01
68301;BME280;55146;47.468;18.806;2023-04-25T07:18:02;99000.38;;;13.55;74.48
68301;BME280;55146;47.468;18.806;2023-04-25T07:20:27;99001.87;;;13.78;74.13
68301;BME280;55146;47.468;18.806;2023-04-25T07:22:53;99004.47;;;13.84;73.41
68301;BME280;55146;47.468;18.806;2023-04-25T07:25:19;99004.03;;;13.99;73.29
68301;BME280;55146;47.468;18.806;2023-04-25T07:27:44;98993.63;;;14.13;72.72
68301;BME280;55146;47.468;18.806;2023-04-25T07:30:10;99005.97;;;14.15;72.06
68301;BME280;55146;47.468;18.806;2023-04-25T07:32:35;98998.84;;;14.06;72.66
68301;BME280;55146;47.468;18.806;2023-04-25T07:35:01;98994.09;;;14.15;71.05
68301;BME280;55146;47.468;18.806;2023-04-25T07:37:27;99000.47;;;14.07;70.41
68301;BME280;55146;47.468;18.806;2023-04-25T07:39:52;98993.47;;;14.01;70.85
68301;BME280;55146;47.468;18.806;2023-04-25T07:42:17;99004.69;;;14.04;72.49
68301;BME280;55146;47.468;18.806;2023-04-25T07:44:43;99005.81;;;13.95;70.32
68301;BME280;55146;47.468;18.806;2023-04-25T07:47:09;99004.81;;;13.82;71.45
68301;BME280;55146;47.468;18.806;2023-04-25T07:49:36;99004.13;;;13.76;71.10
68301;BME280;55146;47.468;18.806;2023-04-25T07:52:03;99007.06;;;13.71;72.51
68301;BME280;55146;47.468;18.806;2023-04-25T07:54:28;99003.37;;;13.36;73.15
68301;BME280;55146;47.468;18.806;2023-04-25T07:56:54;99007.16;;;13.49;72.08
68301;BME280;55146;47.468;18.806;2023-04-25T07:59:20;98998.22;;;13.52;71.36
68301;BME280;55146;47.468;18.806;2023-04-25T08:01:45;99003.47;;;13.62;71.13
68301;BME280;55146;47.468;18.806;2023-04-25T08:04:11;99001.87;;;13.70;71.42
68301;BME280;55146;47.468;18.806;2023-04-25T08:06:36;99000.72;;;13.71;71.41
68301;BME280;55146;47.468;18.806;2023-04-25T08:09:02;99000.25;;;13.69;70.60
68301;BME280;55146;47.468;18.806;2023-04-25T08:11:28;99009.47;;;13.64;72.25
68301;BME280;55146;47.468;18.806;2023-04-25T08:13:53;98998.94;;;13.75;71.82
68301;BME280;55146;47.468;18.806;2023-04-25T08:16:19;99000.91;;;13.74;70.39
68301;BME280;55146;47.468;18.806;2023-04-25T08:18:44;99002.81;;;13.65;70.95
68301;BME280;55146;47.468;18.806;2023-04-25T08:21:09;99008.00;;;13.50;70.70
68301;BME280;55146;47.468;18.806;2023-04-25T08:23:36;99007.69;;;13.60;70.81
68301;BME280;55146;47.468;18.806;2023-04-25T08:26:02;99013.06;;;13.65;71.35
68301;BME280;55146;47.468;18.806;2023-04-25T08:28:27;99009.16;;;13.66;71.20
68301;BME280;55146;47.468;18.806;2023-04-25T08:30:53;99017.47;;;13.74;71.72
68301;BME280;55146;47.468;18.806;2023-04-25T08:33:19;99024.66;;;13.75;70.92
68301;BME280;55146;47.468;18.806;2023-04-25T08:35:44;99021.38;;;13.73;70.86
68301;BME280;55146;47.468;18.806;2023-04-25T08:38:10;99029.62;;;13.65;69.87
68301;BME280;55146;47.468;18.806;2023-04-25T08:40:38;99028.34;;;13.71;70.80
68301;BME280;55146;47.468;18.806;2023-04-25T08:43:06;99031.72;;;13.59;70.57
68301;BME280;55146;47.468;18.806;2023-04-25T08:45:38;99032.56;;;13.60;71.86
68301;BME280;55146;47.468;18.806;2023-04-25T08:48:04;99026.88;;;13.65;71.00
68301;BME280;55146;47.468;18.806;2023-04-25T08:50:31;99037.62;;;13.66;72.52
68301;BME280;55146;47.468;18.806;2023-04-25T08:52:59;99040.41;;;13.75;72.19
68301;BME280;55146;47.468;18.806;2023-04-25T08:55:29;99043.50;;;13.73;71.07
68301;BME280;55146;47.468;18.806;2023-04-25T08:57:56;99039.75;;;13.78;70.62
68301;BME280;55146;47.468;18.806;2023-04-25T09:00:21;99044.00;;;13.84;70.98
68301;BME280;55146;47.468;18.806;2023-04-25T09:02:48;99041.91;;;13.90;71.84
68301;BME280;55146;47.468;18.806;2023-04-25T09:05:13;99039.97;;;13.99;69.06
68301;BME280;55146;47.468;18.806;2023-04-25T09:07:39;99049.53;;;13.84;69.27
68301;BME280;55146;47.468;18.806;2023-04-25T09:10:05;99037.66;;;13.84;69.39
68301;BME280;55146;47.468;18.806;2023-04-25T09:12:31;99035.22;;;13.82;68.68
68301;BME280;55146;47.468;18.806;2023-04-25T09:15:10;99035.81;;;13.70;69.67
68301;BME280;55146;47.468;18.806;2023-04-25T09:17:36;99040.25;;;13.89;70.03
68301;BME280;55146;47.468;18.806;2023-04-25T09:20:09;99039.31;;;13.93;68.83
68301;BME280;55146;47.468;18.806;2023-04-25T09:22:36;99039.63;;;13.92;68.75
68301;BME280;55146;47.468;18.806;2023-04-25T09:25:12;99034.59;;;14.02;68.01
68301;BME280;55146;47.468;18.806;2023-04-25T09:27:53;99029.41;;;14.01;67.93
68301;BME280;55146;47.468;18.806;2023-04-25T09:30:29;99029.06;;;14.02;67.22
68301;BME280;55146;47.468;18.806;2023-04-25T09:33:04;99021.91;;;14.01;67.11
68301;BME280;55146;47.468;18.806;2023-04-25T09:35:35;99029.25;;;14.14;66.41
68301;BME280;55146;47.468;18.806;2023-04-25T09:38:00;99025.66;;;14.14;66.46
68301;BME280;55146;47.468;18.806;2023-04-25T09:40:26;99023.06;;;14.26;66.67
68301;BME280;55146;47.468;18.806;2023-04-25T09:42:51;99020.81;;;14.54;66.28
68301;BME280;55146;47.468;18.806;2023-04-25T09:45:16;99025.06;;;14.60;65.68
68301;BME280;55146;47.468;18.806;2023-04-25T09:47:42;99023.88;;;14.70;66.75
68301;BME280;55146;47.468;18.806;2023-04-25T09:50:16;99032.97;;;14.96;67.64
68301;BME280;55146;47.468;18.806;2023-04-25T09:52:43;99030.50;;;15.03;64.86
68301;BME280;55146;47.468;18.806;2023-04-25T09:55:08;99030.50;;;15.03;64.86
68301;BME280;55146;47.468;18.806;2023-04-25T09:57:35;99032.34;;;14.82;64.11
68301;BME280;55146;47.468;18.806;2023-04-25T10:00:01;99038.22;;;14.80;64.39
68301;BME280;55146;47.468;18.806;2023-04-25T10:02:30;99037.09;;;14.73;64.67
68301;BME280;55146;47.468;18.806;2023-04-25T10:04:58;99043.47;;;14.47;63.91
68301;BME280;55146;47.468;18.806;2023-04-25T10:07:26;99040.69;;;14.56;64.51
68301;BME280;55146;47.468;18.806;2023-04-25T10:10:01;99037.75;;;14.52;64.35
68301;BME280;55146;47.468;18.806;2023-04-25T10:12:28;99025.53;;;14.36;65.58
68301;BME280;55146;47.468;18.806;2023-04-25T10:14:54;99036.44;;;14.24;64.56
68301;BME280;55146;47.468;18.806;2023-04-25T10:17:20;99035.75;;;14.10;65.15
68301;BME280;55146;47.468;18.806;2023-04-25T10:19:47;99030.72;;;14.12;66.36
68301;BME280;55146;47.468;18.806;2023-04-25T10:24:44;99030.59;;;14.60;67.67
68301;BME280;55146;47.468;18.806;2023-04-25T10:27:12;99031.00;;;14.96;68.59
68301;BME280;55146;47.468;18.806;2023-04-25T10:29:38;99031.09;;;15.26;65.31
68301;BME280;55146;47.468;18.806;2023-04-25T10:32:03;99023.47;;;15.14;63.64
68301;BME280;55146;47.468;18.806;2023-04-25T10:34:40;99044.81;;;15.22;63.09
68301;BME280;55146;47.468;18.806;2023-04-25T10:37:08;99040.41;;;15.21;64.32
68301;BME280;55146;47.468;18.806;2023-04-25T10:39:34;99041.34;;;15.34;63.47
68301;BME280;55146;47.468;18.806;2023-04-25T10:42:01;99036.22;;;15.45;61.52
68301;BME280;55146;47.468;18.806;2023-04-25T10:44:30;99033.63;;;15.48;61.75
68301;BME280;55146;47.468;18.806;2023-04-25T10:46:56;99032.72;;;15.18;61.56
68301;BME280;55146;47.468;18.806;2023-04-25T10:49:36;99039.56;;;15.29;62.37
68301;BME280;55146;47.468;18.806;2023-04-25T10:54:57;99040.19;;;15.35;61.47
68301;BME280;55146;47.468;18.806;2023-04-25T10:57:42;99047.38;;;16.03;60.27
68301;BME280;55146;47.468;18.806;2023-04-25T11:02:52;99037.91;;;16.25;56.91
68301;BME280;55146;47.468;18.806;2023-04-25T11:05:35;99036.56;;;16.10;55.74
68301;BME280;55146;47.468;18.806;2023-04-25T11:08:02;99039.88;;;16.25;58.22
68301;BME280;55146;47.468;18.806;2023-04-25T11:10:32;99042.59;;;16.33;56.81
68301;BME280;55146;47.468;18.806;2023-04-25T11:13:00;99046.16;;;16.13;58.02
68301;BME280;55146;47.468;18.806;2023-04-25T11:15:26;99046.16;;;15.92;57.83
68301;BME280;55146;47.468;18.806;2023-04-25T11:17:52;99042.69;;;15.66;57.65
68301;BME280;55146;47.468;18.806;2023-04-25T11:20:18;99051.25;;;15.52;58.31
68301;BME280;55146;47.468;18.806;2023-04-25T11:22:45;99053.63;;;15.62;58.63
68301;BME280;55146;47.468;18.806;2023-04-25T11:25:12;99047.47;;;15.48;58.08
68301;BME280;55146;47.468;18.806;2023-04-25T11:27:55;99050.91;;;15.54;57.93
68301;BME280;55146;47.468;18.806;2023-04-25T11:30:25;99056.87;;;15.73;57.78
68301;BME280;55146;47.468;18.806;2023-04-25T11:32:51;99063.50;;;16.31;59.69
68301;BME280;55146;47.468;18.806;2023-04-25T11:35:18;99072.06;;;16.88;56.78
68301;BME280;55146;47.468;18.806;2023-04-25T11:37:44;99081.25;;;17.33;57.04
68301;BME280;55146;47.468;18.806;2023-04-25T11:40:10;99076.44;;;17.67;54.89
68301;BME280;55146;47.468;18.806;2023-04-25T11:42:43;99072.75;;;18.11;52.78
68301;BME280;55146;47.468;18.806;2023-04-25T11:45:09;99074.03;;;17.90;48.66
68301;BME280;55146;47.468;18.806;2023-04-25T11:47:36;99062.44;;;18.00;51.96
68301;BME280;55146;47.468;18.806;2023-04-25T11:50:03;99072.47;;;18.41;49.15
68301;BME280;55146;47.468;18.806;2023-04-25T11:52:46;99087.59;;;18.03;48.15
68301;BME280;55146;47.468;18.806;2023-04-25T11:55:16;99077.41;;;17.71;49.54
68301;BME280;55146;47.468;18.806;2023-04-25T11:57:44;99080.84;;;18.04;50.95
68301;BME280;55146;47.468;18.806;2023-04-25T12:00:17;99071.31;;;18.42;48.37
68301;BME280;55146;47.468;18.806;2023-04-25T12:02:44;99083.19;;;18.14;48.40
68301;BME280;55146;47.468;18.806;2023-04-25T12:05:11;99086.06;;;17.69;48.24
68301;BME280;55146;47.468;18.806;2023-04-25T12:07:37;99077.28;;;17.34;49.81
68301;BME280;55146;47.468;18.806;2023-04-25T12:12:33;99078.13;;;17.59;46.19
68301;BME280;55146;47.468;18.806;2023-04-25T12:15:08;99086.41;;;17.23;48.87
68301;BME280;55146;47.468;18.806;2023-04-25T12:17:34;99082.47;;;17.24;48.74
68301;BME280;55146;47.468;18.806;2023-04-25T12:20:06;99079.84;;;16.94;49.69
68301;BME280;55146;47.468;18.806;2023-04-25T12:22:32;99075.28;;;17.23;51.97
68301;BME280;55146;47.468;18.806;2023-04-25T12:24:58;99079.81;;;17.85;50.80
68301;BME280;55146;47.468;18.806;2023-04-25T12:27:25;99074.47;;;17.79;46.67
68301;BME280;55146;47.468;18.806;2023-04-25T12:29:54;99074.38;;;17.64;47.56
68301;BME280;55146;47.468;18.806;2023-04-25T12:32:19;99075.31;;;17.92;49.89
68301;BME280;55146;47.468;18.806;2023-04-25T12:34:45;99066.72;;;17.97;45.79
68301;BME280;55146;47.468;18.806;2023-04-25T12:37:10;99061.38;;;18.04;47.26
68301;BME280;55146;47.468;18.806;2023-04-25T12:39:36;99045.03;;;18.03;47.66
68301;BME280;55146;47.468;18.806;2023-04-25T12:42:01;99048.50;;;18.12;44.89
68301;BME280;55146;47.468;18.806;2023-04-25T12:44:28;99057.66;;;18.25;44.76
68301;BME280;55146;47.468;18.806;2023-04-25T12:46:53;99052.66;;;18.18;43.89
68301;BME280;55146;47.468;18.806;2023-04-25T12:49:19;99049.44;;;18.04;46.01
68301;BME280;55146;47.468;18.806;2023-04-25T12:51:45;99044.22;;;18.14;45.64
68301;BME280;55146;47.468;18.806;2023-04-25T12:54:10;99042.69;;;18.17;45.81
68301;BME280;55146;47.468;18.806;2023-04-25T12:56:36;99043.28;;;17.98;43.98